createdAt,value
2022-08-05T00:00:20.009Z,23.32
2022-08-05T00:02:50.570Z,23.37
2022-08-05T00:06:02.040Z,23.35
2022-08-05T00:08:32.901Z,23.30
2022-08-05T00:10:53.614Z,23.30
2022-08-05T00:13:20.635Z,23.27
2022-08-05T00:16:08.618Z,23.30
2022-08-05T00:18:37.921Z,23.28
2022-08-05T00:21:06.769Z,23.29
2022-08-05T00:23:45.813Z,23.27
2022-08-05T00:26:16.326Z,23.26
2022-08-05T00:28:44.005Z,23.28
2022-08-05T00:31:13.319Z,23.28
2022-08-05T00:34:54.216Z,23.31
2022-08-05T00:37:11.209Z,23.30
2022-08-05T00:39:14.485Z,23.25
2022-08-05T00:41:51.838Z,23.24
2022-08-05T00:44:23.335Z,23.22
2022-08-05T00:47:01.622Z,23.20
2022-08-05T00:49:44.405Z,23.16
2022-08-05T00:52:18.328Z,23.17
2022-08-05T00:54:56.143Z,23.19
2022-08-05T00:57:25.192Z,23.18
2022-08-05T00:59:52.636Z,23.16
2022-08-05T01:02:19.656Z,23.12
2022-08-05T01:04:51.269Z,23.11
2022-08-05T01:07:18.183Z,23.07
2022-08-05T01:09:45.331Z,23.06
2022-08-05T01:12:25.047Z,23.07
2022-08-05T01:15:35.379Z,23.06
2022-08-05T01:18:09.840Z,23.02
2022-08-05T01:21:37.862Z,23.01
2022-08-05T01:24:22.981Z,23.00
2022-08-05T01:27:19.497Z,23.01
2022-08-05T01:29:52.633Z,23.02
2022-08-05T01:32:24.838Z,23.01
2022-08-05T01:35:10.737Z,23.00
2022-08-05T01:37:46.206Z,22.99
2022-08-05T01:40:17.968Z,22.99
2022-08-05T01:42:46.779Z,22.97
2022-08-05T01:45:16.586Z,22.97
2022-08-05T01:47:46.640Z,22.94
2022-08-05T01:50:29.836Z,22.90
2022-08-05T01:53:01.563Z,22.92
2022-08-05T01:55:32.731Z,23.00
2022-08-05T01:58:12.557Z,23.12
2022-08-05T02:00:49.249Z,23.08
2022-08-05T02:03:32.149Z,23.09
2022-08-05T02:06:24.031Z,23.03
2022-08-05T02:08:58.033Z,22.99
2022-08-05T02:11:33.200Z,22.97
2022-08-05T02:14:17.607Z,23.01
2022-08-05T02:16:53.227Z,22.94
2022-08-05T02:19:34.262Z,22.87
2022-08-05T02:22:17.555Z,22.84
2022-08-05T02:25:00.928Z,22.84
2022-08-05T02:27:58.213Z,22.82
2022-08-05T02:30:17.942Z,22.71
2022-08-05T02:32:52.765Z,22.62
2022-08-05T02:35:28.095Z,22.55
2022-08-05T02:38:02.320Z,22.53
2022-08-05T02:40:31.012Z,22.49
2022-08-05T02:42:59.969Z,22.47
2022-08-05T02:45:28.990Z,22.44
2022-08-05T02:48:17.450Z,22.41
2022-08-05T02:50:47.078Z,22.37
2022-08-05T02:53:18.963Z,22.32
2022-08-05T02:55:59.667Z,22.32
2022-08-05T02:58:27.567Z,22.30
2022-08-05T03:01:01.743Z,22.28
2022-08-05T03:03:34.219Z,22.30
2022-08-05T03:06:56.160Z,22.28
2022-08-05T03:09:05.508Z,22.28
2022-08-05T03:11:55.693Z,22.27
2022-08-05T03:14:21.854Z,22.25
2022-08-05T03:16:49.554Z,22.27
2022-08-05T03:19:34.413Z,22.28
2022-08-05T03:22:04.979Z,22.25
2022-08-05T03:24:32.589Z,22.23
2022-08-05T03:27:01.024Z,22.20
2022-08-05T03:29:45.357Z,22.20
2022-08-05T03:32:16.053Z,22.22
2022-08-05T03:34:47.238Z,22.22
2022-08-05T03:37:18.654Z,22.25
2022-08-05T03:40:01.254Z,22.24
2022-08-05T03:42:32.227Z,22.29
2022-08-05T03:45:01.886Z,22.33
2022-08-05T03:47:47.896Z,22.36
2022-08-05T03:50:16.290Z,22.40
2022-08-05T03:55:00.535Z,22.41
2022-08-05T03:56:44.473Z,22.45
2022-08-05T03:59:24.661Z,22.47
2022-08-05T04:01:53.659Z,22.49
2022-08-05T04:04:27.508Z,22.46
2022-08-05T04:06:56.051Z,22.43
2022-08-05T04:09:26.156Z,22.44
2022-08-05T04:11:56.833Z,22.43
2022-08-05T04:14:29.836Z,22.52
2022-08-05T04:17:00.071Z,22.57
2022-08-05T04:19:29.065Z,22.66
2022-08-05T04:22:10.039Z,22.68
2022-08-05T04:24:52.298Z,22.74
2022-08-05T04:27:41.814Z,22.83
2022-08-05T04:30:09.271Z,22.82
2022-08-05T04:32:36.445Z,22.84
2022-08-05T04:35:04.852Z,22.84
2022-08-05T04:38:01.668Z,22.86
2022-08-05T04:40:20.089Z,22.94
2022-08-05T04:42:47.006Z,22.97
2022-08-05T04:45:31.365Z,23.03
2022-08-05T04:48:10.283Z,23.08
2022-08-05T04:51:01.606Z,23.08
2022-08-05T04:53:33.706Z,23.19
2022-08-05T04:56:15.290Z,23.27
2022-08-05T04:58:50.037Z,23.37
2022-08-05T05:02:06.425Z,23.42
2022-08-05T05:04:04.692Z,23.45
2022-08-05T05:06:39.071Z,23.49
2022-08-05T05:09:14.094Z,23.57
2022-08-05T05:11:55.642Z,23.57
2022-08-05T05:14:31.718Z,23.63
2022-08-05T05:17:03.262Z,23.68
2022-08-05T05:19:37.110Z,23.70
2022-08-05T05:22:23.818Z,23.78
2022-08-05T05:24:57.713Z,23.77
2022-08-05T05:27:44.375Z,23.81
2022-08-05T05:30:29.751Z,23.92
2022-08-05T05:33:03.909Z,23.97
2022-08-05T05:35:42.539Z,24.13
2022-08-05T05:38:12.819Z,24.28
2022-08-05T05:40:49.911Z,24.46
2022-08-05T05:43:22.115Z,24.63
2022-08-05T05:46:15.793Z,24.76
2022-08-05T05:48:44.015Z,24.82
2022-08-05T05:51:15.168Z,24.88
2022-08-05T05:53:54.362Z,24.83
2022-08-05T05:56:34.461Z,24.78
2022-08-05T05:59:06.773Z,24.81
2022-08-05T06:01:38.219Z,24.82
2022-08-05T06:04:11.374Z,24.88
2022-08-05T06:06:41.767Z,24.89
2022-08-05T06:09:09.546Z,25.04
2022-08-05T06:12:01.014Z,25.22
2022-08-05T06:14:33.434Z,25.43
2022-08-05T06:17:22.253Z,25.49
2022-08-05T06:19:57.220Z,25.61
2022-08-05T06:22:33.518Z,25.71
2022-08-05T06:25:59.121Z,25.81
2022-08-05T06:28:10.964Z,25.88
2022-08-05T06:30:36.358Z,26.04
2022-08-05T06:33:03.363Z,26.11
2022-08-05T06:36:07.620Z,26.12
2022-08-05T06:38:17.944Z,26.17
2022-08-05T06:41:03.283Z,26.27
2022-08-05T06:43:58.694Z,26.41
2022-08-05T06:46:18.054Z,26.55
2022-08-05T06:48:55.379Z,26.58
2022-08-05T06:51:30.217Z,26.71
2022-08-05T06:53:59.907Z,26.86
2022-08-05T06:56:28.127Z,27.00
2022-08-05T06:58:55.697Z,27.14
2022-08-05T07:01:23.174Z,27.28
2022-08-05T07:03:54.838Z,27.37
2022-08-05T07:06:21.810Z,27.53
2022-08-05T07:08:54.667Z,27.65
2022-08-05T07:11:22.675Z,27.77
2022-08-05T07:13:59.575Z,27.85
2022-08-05T07:17:57.244Z,27.87
2022-08-05T07:19:38.902Z,27.92
2022-08-05T07:22:08.083Z,28.00
2022-08-05T07:24:44.062Z,28.10
2022-08-05T07:27:19.641Z,28.26
2022-08-05T07:30:24.646Z,28.35
2022-08-05T07:32:38.925Z,28.50
2022-08-05T07:36:03.729Z,28.67
2022-08-05T07:37:57.226Z,28.79
2022-08-05T07:40:31.458Z,28.88
2022-08-05T07:42:59.696Z,29.01
2022-08-05T07:45:56.481Z,29.10
2022-08-05T07:49:00.667Z,29.21
2022-08-05T07:51:08.701Z,29.31
2022-08-05T07:53:51.251Z,29.42
2022-08-05T07:57:00.202Z,29.47
2022-08-05T07:59:08.535Z,29.53
2022-08-05T08:01:41.615Z,29.56
2022-08-05T08:04:34.358Z,29.58
2022-08-05T08:07:05.475Z,29.64
2022-08-05T08:09:34.251Z,29.73
2022-08-05T08:12:09.071Z,29.71
2022-08-05T08:14:46.663Z,29.76
2022-08-05T08:17:16.114Z,29.76
2022-08-05T08:20:23.515Z,29.82
2022-08-05T08:22:35.691Z,29.87
2022-08-05T08:25:03.995Z,29.90
2022-08-05T08:27:47.962Z,30.04
2022-08-05T08:30:32.787Z,30.09
2022-08-05T08:33:13.788Z,30.17
2022-08-05T08:35:53.126Z,30.17
2022-08-05T08:38:35.189Z,30.18
2022-08-05T08:41:13.989Z,30.26
2022-08-05T08:45:18.901Z,30.29
2022-08-05T08:46:31.780Z,30.30
2022-08-05T08:49:17.471Z,30.29
2022-08-05T08:52:03.798Z,30.38
2022-08-05T08:54:37.227Z,30.48
2022-08-05T08:57:11.337Z,30.53
2022-08-05T08:59:41.793Z,30.55
2022-08-05T09:02:16.775Z,30.59
2022-08-05T09:04:58.421Z,30.65
2022-08-05T09:07:39.512Z,30.74
2022-08-05T09:10:20.721Z,30.75
2022-08-05T09:12:55.066Z,30.81
2022-08-05T09:15:23.420Z,30.85
2022-08-05T09:17:53.077Z,30.84
2022-08-05T09:20:20.792Z,30.88
2022-08-05T09:23:09.734Z,30.90
2022-08-05T09:26:01.503Z,30.86
2022-08-05T09:28:33.373Z,30.84
2022-08-05T09:32:38.569Z,30.97
2022-08-05T09:34:01.604Z,30.97
2022-08-05T09:36:55.083Z,31.05
2022-08-05T09:39:41.131Z,31.13
2022-08-05T09:42:20.201Z,31.10
2022-08-05T09:44:56.310Z,31.06
2022-08-05T09:47:46.530Z,31.14
2022-08-05T09:50:38.951Z,31.07
2022-08-05T09:53:06.255Z,31.08
2022-08-05T09:55:57.458Z,31.08
2022-08-05T09:58:23.907Z,31.18
2022-08-05T10:00:53.827Z,31.11
2022-08-05T10:03:21.507Z,31.10
2022-08-05T10:06:05.971Z,31.29
2022-08-05T10:08:42.511Z,31.40
2022-08-05T10:11:18.772Z,31.38
2022-08-05T10:13:48.247Z,31.43
2022-08-05T10:16:32.210Z,31.59
2022-08-05T10:19:01.747Z,31.61
2022-08-05T10:21:40.240Z,31.64
2022-08-05T10:24:11.244Z,31.69
2022-08-05T10:26:51.358Z,31.73
2022-08-05T10:29:23.913Z,31.69
2022-08-05T10:32:54.223Z,31.67
2022-08-05T10:34:55.259Z,31.72
2022-08-05T10:37:22.648Z,31.77
2022-08-05T10:40:04.119Z,31.79
2022-08-05T10:42:45.369Z,31.85
2022-08-05T10:45:23.407Z,31.84
2022-08-05T10:48:31.924Z,31.87
2022-08-05T10:51:22.475Z,31.86
2022-08-05T10:54:01.721Z,31.84
2022-08-05T10:56:49.318Z,31.73
2022-08-05T11:00:03.391Z,31.78
2022-08-05T11:02:37.678Z,31.82
2022-08-05T11:05:09.453Z,31.84
2022-08-05T11:08:01.210Z,31.71
2022-08-05T11:10:32.000Z,31.71
2022-08-05T11:13:01.367Z,31.52
2022-08-05T11:15:59.327Z,31.44
2022-08-05T11:18:32.534Z,31.44
2022-08-05T11:21:00.562Z,31.52
2022-08-05T11:24:02.894Z,31.61
2022-08-05T11:26:28.905Z,31.64
2022-08-05T11:29:13.384Z,31.58
2022-08-05T11:31:56.560Z,31.56
2022-08-05T11:34:51.547Z,31.71
2022-08-05T11:38:28.579Z,31.81
2022-08-05T11:41:12.805Z,31.68
2022-08-05T11:44:07.011Z,31.69
2022-08-05T11:47:11.726Z,31.65
2022-08-05T11:49:34.438Z,31.77
2022-08-05T11:52:11.289Z,31.85
2022-08-05T11:54:40.372Z,31.91
2022-08-05T11:57:24.311Z,32.01
2022-08-05T11:59:53.730Z,32.11
2022-08-05T12:02:31.823Z,32.15
2022-08-05T12:05:07.821Z,32.19
2022-08-05T12:08:03.196Z,32.30
2022-08-05T12:10:38.507Z,32.26
2022-08-05T12:13:15.535Z,32.27
2022-08-05T12:15:45.472Z,32.33
2022-08-05T12:18:32.816Z,32.36
2022-08-05T12:21:12.305Z,32.46
2022-08-05T12:23:43.309Z,32.48
2022-08-05T12:26:10.283Z,32.56
2022-08-05T12:28:38.208Z,32.59
2022-08-05T12:31:05.860Z,32.58
2022-08-05T12:33:36.651Z,32.55
2022-08-05T12:36:09.639Z,32.57
2022-08-05T12:38:41.327Z,32.57
2022-08-05T12:41:13.930Z,32.55
2022-08-05T12:44:02.486Z,32.52
2022-08-05T12:46:31.828Z,32.52
2022-08-05T12:49:15.601Z,32.51
2022-08-05T12:52:12.921Z,32.45
2022-08-05T12:54:41.745Z,32.43
2022-08-05T12:57:10.160Z,32.41
2022-08-05T13:00:08.368Z,32.50
2022-08-05T13:02:36.075Z,32.57
2022-08-05T13:05:06.938Z,32.58
2022-08-05T13:07:59.393Z,32.55
2022-08-05T13:10:20.774Z,32.51
2022-08-05T13:12:51.023Z,32.55
2022-08-05T13:15:41.274Z,32.72
2022-08-05T13:18:20.161Z,32.76
2022-08-05T13:20:49.311Z,32.80
2022-08-05T13:23:18.237Z,32.82
2022-08-05T13:25:58.995Z,32.89
2022-08-05T13:28:28.814Z,32.96
2022-08-05T13:30:55.891Z,32.99
2022-08-05T13:34:23.243Z,33.02
2022-08-05T13:36:11.845Z,32.98
2022-08-05T13:38:42.241Z,32.91
2022-08-05T13:41:10.182Z,32.96
2022-08-05T13:43:44.366Z,32.99
2022-08-05T13:46:13.479Z,32.98
2022-08-05T13:48:58.324Z,32.91
2022-08-05T13:51:40.020Z,32.96
2022-08-05T13:54:12.819Z,32.89
2022-08-05T13:56:45.497Z,32.68
2022-08-05T13:59:21.405Z,32.63
2022-08-05T14:01:59.203Z,32.59
2022-08-05T14:04:35.495Z,32.45
2022-08-05T14:07:25.133Z,32.57
2022-08-05T14:09:50.230Z,32.64
2022-08-05T14:12:32.260Z,32.70
2022-08-05T14:14:59.813Z,32.68
2022-08-05T14:17:28.377Z,32.74
2022-08-05T14:19:59.633Z,32.74
2022-08-05T14:22:30.293Z,32.53
2022-08-05T14:25:02.158Z,32.54
2022-08-05T14:27:33.366Z,32.50
2022-08-05T14:30:01.202Z,32.46
2022-08-05T14:32:28.498Z,32.39
2022-08-05T14:34:56.891Z,32.34
2022-08-05T14:37:45.278Z,32.32
2022-08-05T14:40:14.192Z,32.16
2022-08-05T14:42:44.044Z,32.06
2022-08-05T14:45:11.158Z,31.90
2022-08-05T14:48:03.501Z,31.82
2022-08-05T14:50:25.367Z,31.76
2022-08-05T14:52:58.309Z,31.69
2022-08-05T14:55:38.620Z,31.59
2022-08-05T14:58:11.002Z,31.51
2022-08-05T15:00:59.104Z,31.42
2022-08-05T15:03:33.104Z,31.28
2022-08-05T15:06:12.902Z,31.16
2022-08-05T15:08:59.214Z,30.96
2022-08-05T15:11:51.351Z,30.84
2022-08-05T15:14:33.511Z,30.80
2022-08-05T15:17:14.593Z,30.67
2022-08-05T15:19:52.881Z,30.66
2022-08-05T15:22:22.211Z,30.54
2022-08-05T15:24:54.826Z,30.45
2022-08-05T15:27:21.782Z,30.43
2022-08-05T15:29:52.785Z,30.41
2022-08-05T15:32:21.276Z,30.39
2022-08-05T15:34:54.622Z,30.36
2022-08-05T15:38:32.613Z,30.26
2022-08-05T15:41:00.430Z,30.15
2022-08-05T15:43:01.330Z,30.09
2022-08-05T15:45:38.131Z,30.00
2022-08-05T15:48:06.839Z,29.98
2022-08-05T15:50:33.858Z,30.00
2022-08-05T15:53:05.141Z,29.92
2022-08-05T15:56:02.396Z,29.87
2022-08-05T15:58:19.759Z,29.77
2022-08-05T16:01:04.385Z,29.70
2022-08-05T16:03:41.094Z,29.59
2022-08-05T16:06:11.428Z,29.49
2022-08-05T16:08:39.846Z,29.38
2022-08-05T16:11:08.087Z,29.26
2022-08-05T16:13:35.463Z,29.23
2022-08-05T16:16:03.724Z,29.12
2022-08-05T16:18:31.607Z,29.05
2022-08-05T16:20:59.567Z,29.01
2022-08-05T16:23:32.830Z,28.97
2022-08-05T16:26:18.346Z,28.93
2022-08-05T16:28:47.053Z,28.92
2022-08-05T16:31:13.899Z,28.87
2022-08-05T16:33:42.069Z,28.81
2022-08-05T16:36:09.889Z,28.79
2022-08-05T16:38:36.725Z,28.73
2022-08-05T16:41:21.538Z,28.68
2022-08-05T16:43:56.270Z,28.58
2022-08-05T16:46:24.787Z,28.54
2022-08-05T16:48:52.147Z,28.46
2022-08-05T16:51:19.809Z,28.44
2022-08-05T16:54:06.103Z,28.40
2022-08-05T16:56:36.272Z,28.32
2022-08-05T16:59:08.477Z,28.27
2022-08-05T17:01:53.885Z,28.23
2022-08-05T17:04:27.203Z,28.16
2022-08-05T17:06:55.810Z,28.11
2022-08-05T17:09:29.524Z,28.05
2022-08-05T17:11:59.144Z,28.03
2022-08-05T17:14:37.362Z,27.93
2022-08-05T17:17:06.194Z,27.89
2022-08-05T17:19:33.939Z,27.80
2022-08-05T17:22:01.311Z,27.73
2022-08-05T17:24:38.655Z,27.69
2022-08-05T17:27:07.538Z,27.68
2022-08-05T17:29:41.069Z,27.64
2022-08-05T17:32:16.671Z,27.54
2022-08-05T17:34:48.494Z,27.47
2022-08-05T17:37:40.149Z,27.42
2022-08-05T17:40:10.386Z,27.38
2022-08-05T17:42:41.626Z,27.34
2022-08-05T17:45:20.020Z,27.23
2022-08-05T17:47:53.509Z,27.31
2022-08-05T17:50:28.435Z,27.24
2022-08-05T17:52:58.516Z,27.22
2022-08-05T17:55:34.683Z,27.18
2022-08-05T17:58:06.997Z,27.15
2022-08-05T18:00:36.372Z,27.11
2022-08-05T18:03:08.079Z,27.08
2022-08-05T18:05:36.043Z,27.09
2022-08-05T18:08:03.580Z,27.05
2022-08-05T18:10:33.501Z,27.01
2022-08-05T18:13:00.561Z,26.98
2022-08-05T18:15:31.169Z,26.96
2022-08-05T18:18:05.648Z,26.98
2022-08-05T18:20:38.327Z,26.98
2022-08-05T18:23:09.352Z,26.98
2022-08-05T18:25:44.923Z,26.89
2022-08-05T18:28:16.007Z,26.85
2022-08-05T18:30:50.830Z,26.81
2022-08-05T18:33:23.072Z,26.74
2022-08-05T18:36:03.439Z,26.76
2022-08-05T18:38:37.046Z,26.70
2022-08-05T18:41:56.778Z,26.68
2022-08-05T18:43:52.893Z,26.65
2022-08-05T18:46:20.699Z,26.61
2022-08-05T18:48:51.819Z,26.61
2022-08-05T18:52:04.320Z,26.60
2022-08-05T18:54:10.291Z,26.52
2022-08-05T18:56:37.179Z,26.48
2022-08-05T18:59:42.101Z,26.43
2022-08-05T19:01:58.074Z,26.40
2022-08-05T19:04:26.196Z,26.38
2022-08-05T19:06:53.957Z,26.40
2022-08-05T19:09:21.757Z,26.39
2022-08-05T19:11:59.348Z,26.32
2022-08-05T19:14:37.768Z,26.33
2022-08-05T19:17:12.077Z,26.29
2022-08-05T19:19:46.608Z,26.31
2022-08-05T19:22:22.147Z,26.30
2022-08-05T19:24:56.488Z,26.25
2022-08-05T19:27:27.692Z,26.22
2022-08-05T19:29:55.132Z,26.19
2022-08-05T19:32:24.204Z,26.18
2022-08-05T19:34:55.034Z,26.17
2022-08-05T19:37:34.959Z,26.19
2022-08-05T19:40:15.031Z,26.20
2022-08-05T19:42:42.429Z,26.14
2022-08-05T19:45:33.112Z,26.03
2022-08-05T19:48:04.150Z,25.91
2022-08-05T19:50:32.493Z,25.84
2022-08-05T19:53:09.372Z,25.78
2022-08-05T19:56:15.472Z,25.74
2022-08-05T19:58:29.280Z,25.69
2022-08-05T20:00:57.176Z,25.61
2022-08-05T20:03:26.143Z,25.55
2022-08-05T20:05:53.289Z,25.53
2022-08-05T20:08:24.464Z,25.48
2022-08-05T20:10:52.537Z,25.46
2022-08-05T20:13:30.192Z,25.43
2022-08-05T20:16:07.183Z,25.42
2022-08-05T20:18:35.929Z,25.43
2022-08-05T20:21:05.061Z,25.35
2022-08-05T20:23:40.432Z,25.32
2022-08-05T20:26:21.104Z,25.32
2022-08-05T20:28:49.803Z,25.29
2022-08-05T20:31:17.746Z,25.27
2022-08-05T20:33:49.068Z,25.31
2022-08-05T20:36:17.948Z,25.30
2022-08-05T20:38:54.391Z,25.23
2022-08-05T20:41:27.095Z,25.18
2022-08-05T20:44:17.184Z,25.17
2022-08-05T20:46:45.306Z,25.14
2022-08-05T20:49:12.753Z,25.12
2022-08-05T20:51:39.628Z,25.03
2022-08-05T20:54:06.920Z,25.02
2022-08-05T20:56:42.397Z,24.98
2022-08-05T20:59:14.217Z,24.94
2022-08-05T21:01:46.044Z,24.93
2022-08-05T21:04:14.199Z,24.92
2022-08-05T21:06:45.728Z,24.82
2022-08-05T21:09:14.369Z,24.77
2022-08-05T21:12:07.741Z,24.76
2022-08-05T21:14:34.729Z,24.68
2022-08-05T21:17:02.146Z,24.66
2022-08-05T21:19:46.442Z,24.57
2022-08-05T21:22:17.620Z,24.53
2022-08-05T21:24:45.738Z,24.51
2022-08-05T21:27:16.638Z,24.52
2022-08-05T21:29:43.582Z,24.50
2022-08-05T21:32:17.199Z,24.48
2022-08-05T21:35:06.688Z,24.42
2022-08-05T21:37:33.729Z,24.38
2022-08-05T21:40:07.463Z,24.37
2022-08-05T21:42:44.562Z,24.32
2022-08-05T21:45:12.784Z,24.29
2022-08-05T21:47:56.038Z,24.24
2022-08-05T21:50:27.784Z,24.22
2022-08-05T21:52:58.864Z,24.25
2022-08-05T21:56:00.927Z,24.25
2022-08-05T21:58:19.389Z,24.23
2022-08-05T22:00:51.251Z,24.25
2022-08-05T22:03:48.764Z,24.23
2022-08-05T22:06:05.709Z,24.17
2022-08-05T22:08:32.987Z,24.14
2022-08-05T22:10:59.954Z,24.10
2022-08-05T22:14:18.276Z,24.05
2022-08-05T22:16:39.579Z,23.99
2022-08-05T22:19:00.704Z,23.92
2022-08-05T22:21:27.599Z,23.91
2022-08-05T22:24:02.701Z,23.88
2022-08-05T22:26:30.719Z,23.91
2022-08-05T22:28:57.660Z,23.84
2022-08-05T22:31:29.995Z,23.79
2022-08-05T22:34:01.627Z,23.77
2022-08-05T22:36:29.377Z,23.71
2022-08-05T22:38:56.777Z,23.73
2022-08-05T22:42:05.577Z,23.72
2022-08-05T22:44:12.032Z,23.66
2022-08-05T22:46:40.742Z,23.62
2022-08-05T22:50:18.204Z,23.59
2022-08-05T22:52:05.862Z,23.55
2022-08-05T22:54:35.880Z,23.49
2022-08-05T22:57:06.491Z,23.49
2022-08-05T22:59:45.246Z,23.49
2022-08-05T23:02:17.264Z,23.49
2022-08-05T23:04:51.610Z,23.46
2022-08-05T23:07:21.906Z,23.40
2022-08-05T23:09:57.333Z,23.37
2022-08-05T23:12:28.903Z,23.35
2022-08-05T23:14:56.096Z,23.33
2022-08-05T23:17:24.358Z,23.34
2022-08-05T23:20:01.072Z,23.28
2022-08-05T23:22:29.762Z,23.31
2022-08-05T23:24:57.961Z,23.25
2022-08-05T23:27:28.973Z,23.17
2022-08-05T23:29:58.351Z,23.16
2022-08-05T23:32:27.095Z,23.17
2022-08-05T23:34:54.257Z,23.12
2022-08-05T23:37:21.141Z,23.14
2022-08-05T23:39:54.530Z,23.08
2022-08-05T23:42:29.173Z,23.06
2022-08-05T23:44:57.318Z,23.05
2022-08-05T23:47:25.076Z,23.06
2022-08-05T23:49:55.576Z,23.05
2022-08-05T23:52:25.370Z,23.02
2022-08-05T23:55:05.233Z,23.05
2022-08-05T23:57:34.732Z,23.07
